Comer, Georgia
Current Conditions -  °F | °C
As of 3:51 PM on Thursday 18 Dec 2014 (Local Time) from KAHN Reporting Station
Few Clouds Few Clouds  
Wind Chill: 59°   Ceiling: Unl
Heat Index: 59°   Visibility: 10mi
Dew Point: 28°   Wind: 6mph
Humidity: 31%   Direction: NA
Pressure: 30.09"   Gusts: NA
Location:  34.06°N, 83.13°W
Report Text: KAHN 182051Z VRB05KT 10SM FEW055 15/M02 A3009 RMK AO2 SLP190 T01501022 55012
Loading
Personal Weather Stations






























Interactive Weather Map New forecast layout! Learn more

10-Day Weather Forecast

Advertisements
Track Severe Weather on mobile